Time;durP1;ratioP1;P1;durP2;ratioP2;P2;SDS_P1;SDS_P2;PMS_P1;PMS_P2;Temp;Humidity;BMP_temperature;BMP_pressure;BME280_temperature;BME280_humidity;BME280_pressure;Samples;Min_cycle;Max_cycle;Signal;HPM_P1;HPM_P2
2021/05/26 00:00:13;;;;;;;7.10;2.57;;;;;;;16.34;61.75;100622.92;125400;1099;104137;-76
2021/05/26 00:03:03;;;;;;;5.67;2.90;;;;;;;16.33;61.44;100624.69;125614;1099;104471;-76
2021/05/26 00:05:32;;;;;;;5.57;2.73;;;;;;;16.32;61.47;100608.77;125245;1102;104348;-77
2021/05/26 00:08:01;;;;;;;5.67;2.73;;;;;;;16.26;61.98;100612.22;125228;1102;107063;-77
2021/05/26 00:10:30;;;;;;;5.53;2.90;;;;;;;16.23;61.54;100614.81;125218;1102;104628;-76
2021/05/26 00:13:00;;;;;;;6.67;2.67;;;;;;;16.22;61.80;100621.00;125176;1102;104153;-77
2021/05/26 00:15:29;;;;;;;3.63;2.43;;;;;;;16.23;62.14;100614.81;125210;1102;104377;-76
2021/05/26 00:17:58;;;;;;;4.40;2.27;;;;;;;16.23;61.55;100619.23;125241;1102;104785;-76
2021/05/26 00:20:27;;;;;;;3.87;2.50;;;;;;;16.20;61.57;100609.48;125267;1102;104309;-76
2021/05/26 00:22:57;;;;;;;3.37;2.50;;;;;;;16.16;62.40;100610.33;125205;1102;104156;-76
2021/05/26 00:25:26;;;;;;;4.23;2.33;;;;;;;16.09;61.67;100601.38;125395;1099;104611;-76
2021/05/26 00:27:58;;;;;;;5.03;2.57;;;;;;;16.02;62.56;100602.17;126021;1099;104188;-76
2021/05/26 00:30:30;;;;;;;4.10;2.60;;;;;;;15.96;62.59;100605.61;126160;1099;104200;-76
2021/05/26 00:33:00;;;;;;;4.00;2.40;;;;;;;15.94;62.78;100607.35;126188;1099;104190;-76
2021/05/26 00:35:29;;;;;;;5.20;2.50;;;;;;;15.92;62.22;100606.41;126260;1099;104275;-75
2021/05/26 00:37:58;;;;;;;3.13;2.30;;;;;;;15.91;62.76;100603.74;126154;1099;104302;-76
2021/05/26 00:40:27;;;;;;;4.63;2.40;;;;;;;15.88;62.06;100596.67;126216;1099;104175;-76
2021/05/26 00:45:55;;;;;;;7.17;3.20;;;;;;;15.80;62.21;100593.91;126284;1099;104214;-76
2021/05/26 00:48:24;;;;;;;8.57;3.00;;;;;;;15.76;62.32;100599.97;126222;1099;104140;-76
2021/05/26 00:50:53;;;;;;;5.13;2.67;;;;;;;15.72;63.15;100598.16;126238;1099;104209;-76
2021/05/26 00:53:24;;;;;;;3.63;2.60;;;;;;;15.69;63.40;100598.11;126310;1098;104264;-76
2021/05/26 00:55:55;;;;;;;4.60;2.53;;;;;;;15.68;63.40;100598.08;126269;1099;104207;-76
2021/05/26 00:58:41;;;;;;;4.13;2.27;;;;;;;15.68;63.44;100592.79;126156;1099;104185;-77
2021/05/26 01:01:10;;;;;;;2.63;2.20;;;;;;;15.72;62.46;100603.45;126239;1099;104271;-75
2021/05/26 01:06:48;;;;;;;3.57;2.50;;;;;;;15.78;62.77;100600.94;126256;1099;104155;-76
2021/05/26 01:09:18;;;;;;;3.43;2.43;;;;;;;15.79;62.92;100607.98;126230;1099;111506;-75
2021/05/26 01:11:47;;;;;;;4.80;2.40;;;;;;;15.80;63.63;100601.84;126265;1099;105272;-76
2021/05/26 01:14:16;;;;;;;3.87;2.43;;;;;;;15.78;62.78;100605.31;126236;1099;104204;-76
2021/05/26 01:16:45;;;;;;;4.33;2.30;;;;;;;15.79;63.45;100601.81;126226;1099;104418;-76
2021/05/26 01:19:16;;;;;;;5.00;2.40;;;;;;;15.79;62.94;100605.34;126212;1099;104133;-76
2021/05/26 01:21:50;;;;;;;4.93;2.30;;;;;;;15.81;62.91;100603.59;126209;1099;104204;-76
2021/05/26 01:24:20;;;;;;;4.80;2.50;;;;;;;15.85;62.97;100606.29;126215;1099;104222;-76
2021/05/26 01:26:49;;;;;;;4.40;2.40;;;;;;;15.87;63.07;100601.94;126186;1099;104370;-76
2021/05/26 01:29:19;;;;;;;3.67;2.40;;;;;;;15.86;63.65;100598.38;126182;1099;104178;-76
2021/05/26 01:31:53;;;;;;;3.53;2.30;;;;;;;15.85;62.96;100591.33;126228;1099;104270;-76
2021/05/26 01:34:23;;;;;;;7.03;2.60;;;;;;;15.80;63.98;100595.67;126281;1099;104230;-77
2021/05/26 01:36:53;;;;;;;7.33;3.30;;;;;;;15.74;63.15;100601.70;126287;1099;104150;-76
2021/05/26 01:39:23;;;;;;;7.55;2.60;;;;;;;15.72;64.09;100599.89;126219;1099;104187;-76
2021/05/26 01:41:52;;;;;;;4.20;2.43;;;;;;;15.71;63.47;100598.13;126230;1099;104229;-76
2021/05/26 01:44:25;;;;;;;3.17;2.57;;;;;;;15.71;64.17;100587.55;126196;1099;104321;-76
2021/05/26 01:47:02;;;;;;;5.53;2.70;;;;;;;15.72;63.86;100595.52;126288;1099;104149;-76
2021/05/26 01:49:31;;;;;;;4.70;2.40;;;;;;;15.74;63.90;100599.06;126222;1099;104153;-76
2021/05/26 01:52:00;;;;;;;7.00;2.30;;;;;;;15.74;63.42;100604.35;126240;1099;104252;-76
2021/05/26 01:54:33;;;;;;;4.20;2.60;;;;;;;15.68;63.36;100604.25;126265;1099;104611;-76
2021/05/26 01:57:02;;;;;;;7.87;2.80;;;;;;;15.64;63.39;100605.05;126254;1099;104236;-77
2021/05/26 01:59:31;;;;;;;5.80;2.60;;;;;;;15.61;63.98;100608.55;126228;1098;104143;-77
2021/05/26 02:02:01;;;;;;;8.20;2.80;;;;;;;15.58;64.60;100605.86;126307;1099;104228;-76
2021/05/26 02:04:30;;;;;;;3.30;2.47;;;;;;;15.52;64.58;100605.75;126235;1098;104207;-77
2021/05/26 02:07:03;;;;;;;4.03;2.43;;;;;;;15.49;64.49;100604.78;126161;1099;104168;-77
2021/05/26 02:09:34;;;;;;;4.15;2.40;;;;;;;15.46;64.58;100605.64;126216;1099;104156;-77
2021/05/26 02:14:49;;;;;;;5.03;2.50;;;;;;;15.52;64.75;100604.84;126279;1099;104153;-76
2021/05/26 02:17:19;;;;;;;4.40;2.50;;;;;;;15.52;64.02;100597.82;126277;1099;104191;-77
2021/05/26 02:19:49;;;;;;;6.00;2.77;;;;;;;15.50;63.83;100609.23;126220;1099;104137;-77
2021/05/26 02:22:19;;;;;;;4.70;2.43;;;;;;;15.49;64.11;100612.72;126213;1099;104258;-76
2021/05/26 02:24:50;;;;;;;4.83;2.57;;;;;;;15.43;64.03;100606.47;126420;1099;104140;-77
2021/05/26 02:27:19;;;;;;;3.97;2.33;;;;;;;15.45;64.65;100615.31;126224;1099;104149;-77
2021/05/26 02:29:49;;;;;;;4.43;2.43;;;;;;;15.45;64.32;100612.67;126164;1099;104149;-77
2021/05/26 02:32:21;;;;;;;4.30;2.30;;;;;;;15.46;65.00;100609.17;126213;1099;104309;-77
2021/05/26 02:34:50;;;;;;;3.43;2.27;;;;;;;15.49;65.09;100608.34;126247;1099;104694;-77
2021/05/26 02:37:20;;;;;;;4.13;2.60;;;;;;;15.49;64.23;100610.08;126284;1099;104194;-76
2021/05/26 02:39:50;;;;;;;3.87;2.23;;;;;;;15.46;64.61;100606.53;126242;1099;104598;-77
2021/05/26 02:42:19;;;;;;;4.67;2.70;;;;;;;15.41;65.31;100610.86;126234;1099;103006;-77
2021/05/26 02:44:49;;;;;;;10.57;4.10;;;;;;;15.39;65.13;100606.39;126239;1098;104341;-76
2021/05/26 02:47:18;;;;;;;13.07;3.00;;;;;;;15.36;65.37;100609.86;126274;1099;104287;-77
2021/05/26 02:49:47;;;;;;;5.23;2.90;;;;;;;15.36;65.32;100624.84;126209;1099;104142;-77
2021/05/26 02:52:18;;;;;;;3.97;2.70;;;;;;;15.36;65.45;100631.02;126246;1099;104153;-77
2021/05/26 02:54:49;;;;;;;5.70;2.47;;;;;;;15.35;65.40;100642.47;126256;1098;104165;-77
2021/05/26 02:57:21;;;;;;;4.13;2.70;;;;;;;15.39;65.47;100641.64;126261;1099;104211;-77
2021/05/26 03:00:12;;;;;;;4.07;2.83;;;;;;;15.43;64.66;100656.72;126156;1099;104265;-76
2021/05/26 03:02:54;;;;;;;5.40;2.57;;;;;;;15.46;65.55;100661.18;126261;1099;104207;-76
2021/05/26 03:05:25;;;;;;;3.97;3.00;;;;;;;15.50;65.32;100667.41;126231;1099;104139;-76
2021/05/26 03:07:55;;;;;;;5.07;3.00;;;;;;;15.53;65.68;100670.11;126134;1099;104675;-75
2021/05/26 03:10:25;;;;;;;17.03;3.60;;;;;;;15.53;65.42;100681.56;126135;1099;104139;-75
2021/05/26 03:13:01;;;;;;;17.50;3.23;;;;;;;15.58;65.86;100687.85;126257;1099;104191;-76
2021/05/26 03:15:30;;;;;;;7.63;2.87;;;;;;;15.67;65.42;100697.69;126211;1099;104178;-77
2021/05/26 03:18:00;;;;;;;5.90;2.75;;;;;;;15.71;65.41;100710.12;126213;1099;104144;-77
2021/05/26 03:20:30;;;;;;;8.83;2.50;;;;;;;15.75;65.63;100722.55;126204;1099;104152;-76
2021/05/26 03:23:19;;;;;;;7.23;2.90;;;;;;;15.83;64.84;100727.10;126244;1099;104229;-77
2021/05/26 03:26:08;;;;;;;7.80;3.10;;;;;;;15.87;65.37;100731.59;126212;1099;104165;-76
2021/05/26 03:28:38;;;;;;;9.23;2.80;;;;;;;15.92;64.90;100733.44;126267;1099;104162;-76
2021/05/26 03:31:07;;;;;;;10.07;3.80;;;;;;;15.95;65.06;100719.38;126252;1099;104168;-77
2021/05/26 03:33:36;;;;;;;8.13;2.83;;;;;;;16.03;65.01;100735.39;126269;1099;104139;-76
2021/05/26 03:36:07;;;;;;;3.40;2.33;;;;;;;16.06;65.10;100744.27;126286;1097;104256;-76
2021/05/26 03:38:36;;;;;;;4.73;2.60;;;;;;;16.12;64.76;100738.20;126293;1099;104165;-76
2021/05/26 03:41:06;;;;;;;6.07;2.60;;;;;;;16.15;65.66;100741.77;126224;1099;104142;-77
2021/05/26 03:43:35;;;;;;;6.20;2.50;;;;;;;16.22;65.46;100745.44;126304;1099;104140;-76
2021/05/26 03:46:05;;;;;;;6.40;2.60;;;;;;;16.32;65.04;100733.23;126280;1099;104227;-76
2021/05/26 03:48:35;;;;;;;7.77;3.03;;;;;;;16.40;64.91;100741.30;126157;1099;104265;-75
2021/05/26 03:51:05;;;;;;;7.87;2.83;;;;;;;16.45;65.00;100740.48;126239;1099;105525;-77
2021/05/26 03:53:36;;;;;;;5.50;2.60;;;;;;;16.49;65.53;100738.80;126255;1099;101828;-77
2021/05/26 03:56:12;;;;;;;4.42;2.80;;;;;;;16.52;65.34;100733.55;126268;1098;104168;-76
2021/05/26 03:59:06;;;;;;;4.97;2.60;;;;;;;16.52;65.11;100736.19;126246;1099;104238;-74
2021/05/26 04:01:38;;;;;;;13.55;3.60;;;;;;;16.55;65.45;100741.53;126162;1099;104236;-75
2021/05/26 04:04:11;;;;;;;7.83;2.53;;;;;;;16.58;65.40;100741.58;126225;1099;104201;-75
2021/05/26 04:06:41;;;;;;;8.43;2.70;;;;;;;16.60;65.22;100744.25;126179;1099;104303;-75
2021/05/26 04:09:11;;;;;;;41.17;5.50;;;;;;;16.58;64.46;100744.23;126145;1099;104220;-75
2021/05/26 04:11:44;;;;;;;;;;;;;;;16.57;65.32;100738.91;126243;1099;105530;-75
2021/05/26 04:14:21;;;;;;;13.43;3.30;;;;;;;16.57;65.37;100744.21;126109;1099;104297;-75
2021/05/26 04:17:04;;;;;;;29.73;3.50;;;;;;;16.62;64.70;100745.16;126160;1099;104163;-75
2021/05/26 04:19:49;;;;;;;10.20;2.87;;;;;;;16.68;65.23;100746.13;126182;1099;104255;-75
2021/05/26 04:22:19;;;;;;;6.07;2.93;;;;;;;16.73;65.28;100742.66;126244;1099;104168;-75
2021/05/26 04:24:57;;;;;;;8.43;3.00;;;;;;;16.77;64.85;100740.09;126160;1099;104626;-75
2021/05/26 04:27:28;;;;;;;13.67;2.70;;;;;;;16.83;65.47;100745.47;126209;1099;104134;-75
2021/05/26 04:30:03;;;;;;;6.80;2.75;;;;;;;16.88;65.07;100730.55;126133;1099;104238;-74
2021/05/26 04:32:36;;;;;;;7.37;2.70;;;;;;;16.94;65.34;100716.50;126145;1099;104216;-74
2021/05/26 04:35:06;;;;;;;7.33;2.80;;;;;;;16.99;64.83;100720.09;126156;1099;104184;-74
2021/05/26 04:37:36;;;;;;;7.17;2.30;;;;;;;17.09;64.55;100713.13;126113;1099;104705;-74
2021/05/26 04:40:07;;;;;;;5.80;2.43;;;;;;;17.22;64.58;100708.89;126079;1099;104257;-74
2021/05/26 04:42:37;;;;;;;3.73;2.23;;;;;;;17.35;65.06;100712.56;126049;1099;104281;-74
2021/05/26 04:45:07;;;;;;;7.67;2.40;;;;;;;17.48;64.84;100735.69;126151;1099;104182;-74
2021/05/26 04:47:40;;;;;;;9.03;2.40;;;;;;;17.59;64.94;100744.67;126098;1099;104204;-74
2021/05/26 04:50:10;;;;;;;9.33;2.30;;;;;;;17.66;64.41;100752.70;126025;1097;104213;-74
2021/05/26 04:52:39;;;;;;;5.93;2.07;;;;;;;17.69;64.56;100760.70;126017;1099;104143;-75
2021/05/26 04:55:10;;;;;;;6.40;2.10;;;;;;;17.75;64.45;100760.77;126174;1099;104173;-74
2021/05/26 04:57:39;;;;;;;6.27;2.50;;;;;;;17.82;64.64;100762.59;126075;1099;104159;-74
2021/05/26 05:00:10;;;;;;;4.93;2.00;;;;;;;17.95;64.22;100774.25;126214;1099;104261;-74
2021/05/26 05:02:41;;;;;;;7.50;2.27;;;;;;;18.04;64.47;100774.33;126213;1099;104191;-74
2021/05/26 05:05:11;;;;;;;2.77;1.60;;;;;;;18.14;64.07;100776.21;126137;1099;104164;-74
2021/05/26 05:07:42;;;;;;;4.70;1.95;;;;;;;18.26;63.93;100782.50;126173;1099;104229;-74
2021/05/26 05:10:12;;;;;;;9.23;2.40;;;;;;;18.35;64.08;100794.98;126142;1099;104143;-75
2021/05/26 05:12:41;;;;;;;5.93;2.00;;;;;;;18.46;63.83;100793.30;126157;1099;104144;-75
2021/05/26 05:15:12;;;;;;;3.40;2.20;;;;;;;18.60;63.97;100794.28;126160;1099;104341;-73
2021/05/26 05:17:41;;;;;;;7.03;2.20;;;;;;;18.74;63.91;100798.82;126044;1099;104141;-73
2021/05/26 05:20:11;;;;;;;5.00;2.20;;;;;;;18.84;63.63;100804.25;125965;1099;104169;-75
2021/05/26 05:22:41;;;;;;;9.13;2.20;;;;;;;18.92;63.11;100804.30;126099;1099;104289;-74
2021/05/26 05:25:12;;;;;;;6.95;2.30;;;;;;;18.93;63.30;100814.06;126039;1099;104195;-75
2021/05/26 05:27:44;;;;;;;2.37;1.70;;;;;;;18.98;63.73;100814.06;126125;1099;102555;-76
2021/05/26 05:30:15;;;;;;;7.50;2.10;;;;;;;19.00;63.23;100817.64;126044;1099;104171;-75
2021/05/26 05:32:44;;;;;;;3.35;2.20;;;;;;;19.01;63.15;100819.40;125972;1099;104258;-76
2021/05/26 05:35:14;;;;;;;3.33;2.00;;;;;;;19.02;63.17;100815.88;125974;1099;104274;-75
2021/05/26 05:37:44;;;;;;;3.77;2.17;;;;;;;19.06;62.87;100822.09;125920;1099;104220;-75
2021/05/26 05:40:17;;;;;;;4.57;2.00;;;;;;;19.08;62.74;100818.56;126801;1099;102927;-75
2021/05/26 05:42:50;;;;;;;3.67;2.10;;;;;;;19.11;63.03;100825.69;125805;1099;104172;-76
2021/05/26 05:45:26;;;;;;;5.27;2.13;;;;;;;19.20;63.38;100828.40;126019;1099;104173;-77
2021/05/26 05:47:58;;;;;;;4.57;2.23;;;;;;;19.26;62.46;100825.77;126031;1099;104162;-77
2021/05/26 05:50:29;;;;;;;9.23;3.83;;;;;;;19.31;62.74;100825.80;125795;1099;104211;-77
2021/05/26 05:53:00;;;;;;;6.90;2.60;;;;;;;19.37;62.27;100829.37;126568;1098;102011;-78
2021/05/26 05:55:31;;;;;;;5.93;2.63;;;;;;;19.45;62.22;100834.73;125699;1099;104495;-77
2021/05/26 05:58:05;;;;;;;6.37;2.52;;;;;;;19.53;62.67;100824.12;125877;1099;104203;-79
2021/05/26 06:00:37;;;;;;;8.17;2.60;;;;;;;19.61;62.52;100825.03;125922;1099;104236;-78
2021/05/26 06:03:08;;;;;;;5.60;2.30;;;;;;;19.74;61.68;100825.95;125788;1098;104182;-78
2021/05/26 06:05:40;;;;;;;5.43;2.07;;;;;;;19.87;62.55;100829.59;125740;1099;104342;-77
2021/05/26 06:08:11;;;;;;;7.83;2.17;;;;;;;19.97;61.77;100823.39;125777;1099;104294;-77
2021/05/26 06:10:43;;;;;;;9.20;2.47;;;;;;;20.06;61.75;100820.74;125790;1099;104213;-77
2021/05/26 06:13:13;;;;;;;3.00;2.70;;;;;;;20.11;62.24;100823.42;125808;1098;104210;-77
2021/05/26 06:15:45;;;;;;;6.17;2.27;;;;;;;20.16;61.64;100813.64;125850;1099;104287;-76
2021/05/26 06:18:17;;;;;;;4.33;2.10;;;;;;;20.17;61.11;100809.23;125707;1099;104204;-78
2021/05/26 06:20:48;;;;;;;5.47;2.50;;;;;;;20.20;61.69;100814.56;125653;1099;104261;-77
2021/05/26 06:23:19;;;;;;;5.23;2.10;;;;;;;20.33;61.18;100815.45;125851;1099;104586;-77
2021/05/26 06:25:50;;;;;;;11.77;2.60;;;;;;;20.46;61.81;100822.58;125866;1099;104146;-77
2021/05/26 06:28:20;;;;;;;4.45;2.50;;;;;;;20.51;61.76;100833.23;125821;1099;102456;-77
2021/05/26 06:30:52;;;;;;;5.37;2.47;;;;;;;20.51;61.24;100831.45;125840;1099;104265;-76
2021/05/26 06:33:21;;;;;;;3.30;2.50;;;;;;;20.50;61.49;100828.78;125805;1099;104175;-77
2021/05/26 06:35:52;;;;;;;5.03;2.50;;;;;;;20.46;60.40;100831.45;125749;1099;104220;-77
2021/05/26 06:38:24;;;;;;;8.87;2.53;;;;;;;20.39;60.14;100842.98;125833;1099;104268;-76
2021/05/26 06:40:55;;;;;;;7.17;2.60;;;;;;;20.36;61.21;100848.31;126056;1099;104278;-77
2021/05/26 06:43:24;;;;;;;6.60;2.50;;;;;;;20.29;60.40;100850.09;125941;1099;104184;-76
2021/05/26 06:45:54;;;;;;;4.70;2.40;;;;;;;20.23;60.63;100847.41;125775;1099;104226;-79
2021/05/26 06:48:26;;;;;;;9.30;2.87;;;;;;;20.21;60.19;100850.95;125864;1097;104443;-78
2021/05/26 06:51:00;;;;;;;8.43;4.10;;;;;;;20.19;59.70;100847.41;125779;1099;104312;-77
2021/05/26 06:53:31;;;;;;;7.57;2.80;;;;;;;20.19;60.23;100855.40;125858;1099;104140;-76
2021/05/26 06:56:01;;;;;;;8.57;2.83;;;;;;;20.19;60.16;100852.73;125598;1099;104306;-76
2021/05/26 06:58:31;;;;;;;5.37;2.40;;;;;;;20.21;60.16;100853.62;125655;1099;104182;-77
2021/05/26 07:01:02;;;;;;;10.07;3.03;;;;;;;20.24;60.61;100857.20;125737;1099;104248;-76
2021/05/26 07:03:33;;;;;;;13.63;3.30;;;;;;;20.29;59.77;100862.53;126513;1099;104237;-78
2021/05/26 07:06:03;;;;;;;10.00;3.03;;;;;;;20.29;59.18;100867.86;125788;1099;104190;-78
2021/05/26 07:08:34;;;;;;;6.57;3.17;;;;;;;20.24;59.43;100864.28;125893;1099;103679;-77
2021/05/26 07:11:06;;;;;;;7.40;2.70;;;;;;;20.26;59.60;100875.85;125940;1099;104165;-75
2021/05/26 07:13:36;;;;;;;11.50;3.10;;;;;;;20.23;59.67;100879.39;125985;1097;104166;-77
2021/05/26 07:16:08;;;;;;;9.75;3.65;;;;;;;20.12;59.30;100873.16;125974;1099;101984;-76
2021/05/26 07:18:42;;;;;;;7.97;3.20;;;;;;;19.97;58.90;100878.44;125821;1099;104193;-77
2021/05/26 07:21:14;;;;;;;14.20;3.70;;;;;;;19.89;59.06;100881.95;125971;1099;104239;-78
2021/05/26 07:23:46;;;;;;;10.35;3.40;;;;;;;19.88;59.92;100885.52;125833;1099;104297;-76
2021/05/26 07:26:17;;;;;;;8.73;3.50;;;;;;;19.90;59.49;100883.75;125921;1099;104753;-77
2021/05/26 07:28:48;;;;;;;11.57;3.30;;;;;;;19.95;59.12;100896.20;126035;1099;104133;-76
2021/05/26 07:31:22;;;;;;;6.37;3.10;;;;;;;19.92;59.76;100892.62;125879;1099;104261;-77
2021/05/26 07:33:52;;;;;;;11.03;3.30;;;;;;;19.84;58.84;100889.05;125979;1099;104146;-76
2021/05/26 07:36:23;;;;;;;11.90;2.70;;;;;;;19.78;58.98;100890.80;125907;1099;104242;-76
2021/05/26 07:38:54;;;;;;;6.10;2.83;;;;;;;19.72;59.30;100887.17;125987;1099;104174;-77
2021/05/26 07:41:25;;;;;;;6.43;3.20;;;;;;;19.71;58.66;100888.08;125882;1099;104163;-77
2021/05/26 07:43:58;;;;;;;7.73;3.30;;;;;;;19.70;59.48;100894.28;125919;1099;101923;-77
2021/05/26 07:46:31;;;;;;;15.57;3.47;;;;;;;19.68;59.52;100892.48;125829;1099;104187;-77
2021/05/26 07:49:01;;;;;;;13.40;3.47;;;;;;;19.66;58.84;100895.13;126198;1099;104477;-74
2021/05/26 07:51:33;;;;;;;13.10;3.50;;;;;;;19.68;58.76;100897.80;125893;1099;104149;-73
2021/05/26 07:54:11;;;;;;;8.50;3.30;;;;;;;19.68;59.40;100892.48;125976;1099;105308;-76
2021/05/26 07:56:42;;;;;;;13.73;3.27;;;;;;;19.70;58.97;100891.62;126079;1099;105453;-76
2021/05/26 07:59:21;;;;;;;8.87;3.67;;;;;;;19.74;58.39;100892.51;126054;1099;104184;-79
2021/05/26 08:01:54;;;;;;;11.43;3.80;;;;;;;19.77;58.97;100889.02;126055;1099;104088;-78
2021/05/26 08:04:39;;;;;;;14.70;4.10;;;;;;;19.86;59.28;100889.05;125966;1099;104230;-77
2021/05/26 08:07:18;;;;;;;24.37;5.17;;;;;;;20.02;59.12;100884.66;125843;1099;104180;-76
2021/05/26 08:09:51;;;;;;;12.90;3.20;;;;;;;20.15;58.73;100885.57;125740;1099;104245;-78
2021/05/26 08:12:22;;;;;;;13.47;3.77;;;;;;;20.21;59.19;100877.59;125727;1099;104153;-78
2021/05/26 08:14:55;;;;;;;14.37;3.57;;;;;;;20.26;58.89;100886.52;125748;1099;104393;-77
2021/05/26 08:17:32;;;;;;;17.17;3.83;;;;;;;20.28;58.42;100885.60;126046;1099;104488;-78
2021/05/26 08:20:08;;;;;;;18.30;4.30;;;;;;;20.34;58.56;100884.73;126118;1099;104171;-78
2021/05/26 08:22:39;;;;;;;16.83;4.23;;;;;;;20.43;58.50;100879.42;126181;1099;104142;-79
2021/05/26 08:25:11;;;;;;;10.87;3.60;;;;;;;20.46;59.25;100887.42;126022;1099;104200;-78
2021/05/26 08:27:41;;;;;;;9.67;3.30;;;;;;;20.47;58.88;100888.30;125725;1099;104194;-77
2021/05/26 08:30:11;;;;;;;9.35;3.25;;;;;;;20.47;58.67;100890.97;125919;1099;104193;-76
2021/05/26 08:32:41;;;;;;;8.07;3.33;;;;;;;20.43;59.11;100892.75;125857;1099;104163;-77
2021/05/26 08:35:13;;;;;;;12.37;4.03;;;;;;;20.34;58.99;100900.73;125812;1099;104213;-77
2021/05/26 08:37:45;;;;;;;15.57;4.23;;;;;;;20.30;58.29;100893.60;125856;1099;104377;-77
2021/05/26 08:40:20;;;;;;;11.83;3.90;;;;;;;20.33;58.15;100906.94;125708;1099;104322;-76
2021/05/26 08:42:55;;;;;;;14.80;4.30;;;;;;;20.35;58.97;100902.52;125886;1099;104214;-77
2021/05/26 08:45:26;;;;;;;11.53;3.40;;;;;;;20.33;59.03;100904.27;125878;1099;104168;-76
2021/05/26 08:47:59;;;;;;;18.40;4.27;;;;;;;20.28;59.23;100890.94;125772;1099;104165;-77
2021/05/26 08:50:32;;;;;;;14.00;4.30;;;;;;;20.25;58.64;100890.05;125865;1099;104399;-79
2021/05/26 08:53:05;;;;;;;12.93;4.20;;;;;;;20.24;58.86;100893.59;126022;1099;104172;-77
2021/05/26 08:55:36;;;;;;;19.10;4.17;;;;;;;20.24;59.36;100883.84;125933;1099;104222;-77
2021/05/26 08:58:07;;;;;;;19.50;4.30;;;;;;;20.34;58.49;100887.41;125826;1099;104166;-76
2021/05/26 09:00:37;;;;;;;17.53;4.27;;;;;;;20.44;59.26;100881.21;125821;1099;104159;-76
2021/05/26 09:03:09;;;;;;;8.83;3.50;;;;;;;20.52;58.99;100877.64;125790;1099;104255;-77
2021/05/26 09:05:39;;;;;;;8.47;3.63;;;;;;;20.58;58.39;100873.20;125702;1099;104379;-78
2021/05/26 09:08:19;;;;;;;11.70;3.50;;;;;;;20.67;58.03;100877.69;125748;1099;104153;-76
2021/05/26 09:10:50;;;;;;;10.63;3.60;;;;;;;20.73;58.33;100891.02;125802;1099;104168;-77
2021/05/26 09:13:30;;;;;;;8.77;3.43;;;;;;;20.82;59.08;100884.81;125829;1099;104274;-77
2021/05/26 09:16:00;;;;;;;11.77;3.70;;;;;;;20.93;58.30;100880.35;126156;1099;104155;-77
2021/05/26 09:18:57;;;;;;;6.77;3.50;;;;;;;21.13;58.12;100882.08;125952;1099;104277;-78
2021/05/26 09:21:42;;;;;;;13.83;3.57;;;;;;;21.40;58.71;100874.94;126111;1099;102565;-78
2021/05/26 09:24:31;;;;;;;10.73;3.40;;;;;;;21.65;58.59;100873.09;125873;1099;104213;-78
2021/05/26 09:27:04;;;;;;;7.03;3.00;;;;;;;21.76;58.35;100879.27;125895;1099;104136;-77
2021/05/26 09:29:42;;;;;;;7.33;3.30;;;;;;;21.90;57.50;100871.19;125742;1098;104191;-78
2021/05/26 09:32:16;;;;;;;5.10;3.00;;;;;;;22.02;57.43;100872.92;125628;1099;104162;-77
2021/05/26 09:34:49;;;;;;;6.60;2.80;;;;;;;22.16;57.27;100878.16;125777;1098;104204;-77
2021/05/26 09:37:22;;;;;;;7.43;3.20;;;;;;;22.29;57.60;100876.32;125670;1099;102748;-76
2021/05/26 09:39:58;;;;;;;5.67;3.37;;;;;;;22.51;57.50;100874.41;125702;1099;104168;-77
2021/05/26 09:42:48;;;;;;;5.90;3.03;;;;;;;22.71;57.61;100871.58;126015;1099;104204;-76
2021/05/26 09:45:26;;;;;;;8.10;3.50;;;;;;;22.85;56.45;100868.78;125610;1099;104307;-76
2021/05/26 09:47:59;;;;;;;;;;;;;;;22.85;56.14;100872.33;125636;1099;104315;-75
2021/05/26 09:50:33;;;;;;;8.27;3.63;;;;;;;23.03;56.64;100875.73;125993;1099;104203;-76
2021/05/26 09:53:08;;;;;;;6.70;3.40;;;;;;;23.18;56.97;100866.70;125861;1099;104139;-77
2021/05/26 09:55:45;;;;;;;6.23;3.30;;;;;;;23.32;56.68;100870.11;125773;1097;104165;-75
2021/05/26 09:58:19;;;;;;;8.53;3.50;;;;;;;23.36;56.53;100871.86;125829;1099;104306;-75
2021/05/26 10:00:50;;;;;;;6.83;3.30;;;;;;;23.44;56.41;100869.09;125776;1099;104174;-74
2021/05/26 10:03:22;;;;;;;5.43;3.20;;;;;;;23.35;56.05;100870.08;125642;1099;104171;-74
2021/05/26 10:05:52;;;;;;;5.97;3.20;;;;;;;23.23;56.16;100884.47;125611;1099;104169;-75
2021/05/26 10:08:41;;;;;;;5.93;3.00;;;;;;;23.15;55.85;100870.29;125537;1099;104238;-76
2021/05/26 10:11:37;;;;;;;6.40;3.63;;;;;;;23.08;56.18;100869.47;125494;1099;104162;-76
2021/05/26 10:14:10;;;;;;;7.10;3.50;;;;;;;23.08;55.56;100865.89;125550;1099;104159;-74
2021/05/26 10:16:43;;;;;;;7.87;3.67;;;;;;;23.08;56.18;100865.89;125692;1099;104291;-77
2021/05/26 10:19:14;;;;;;;6.83;3.50;;;;;;;23.09;55.64;100863.23;125694;1099;104158;-76
2021/05/26 10:21:46;;;;;;;6.20;3.60;;;;;;;23.06;55.88;100863.22;125706;1099;104246;-75
2021/05/26 10:24:20;;;;;;;4.97;3.47;;;;;;;23.04;55.37;100865.01;125648;1099;104179;-75
2021/05/26 10:27:02;;;;;;;8.97;3.70;;;;;;;23.05;55.81;100864.11;125823;1099;104331;-75
2021/05/26 10:29:47;;;;;;;9.23;3.50;;;;;;;23.14;55.74;100865.86;125852;1099;104140;-75
2021/05/26 10:32:32;;;;;;;6.67;3.60;;;;;;;23.18;55.66;100862.22;125849;1099;104222;-75
2021/05/26 10:35:07;;;;;;;7.03;3.77;;;;;;;23.30;55.48;100863.89;125879;1099;104175;-74
2021/05/26 10:37:46;;;;;;;7.73;3.57;;;;;;;23.51;55.59;100866.33;125762;1099;104268;-74
2021/05/26 10:40:34;;;;;;;8.33;3.70;;;;;;;23.65;55.33;100865.25;126032;1099;104204;-74
2021/05/26 10:43:29;;;;;;;6.60;3.57;;;;;;;23.76;55.00;100862.44;125969;1098;105271;-75
2021/05/26 10:46:02;;;;;;;9.10;3.60;;;;;;;23.85;55.76;100856.99;125863;1099;104153;-75
2021/05/26 10:48:53;;;;;;;10.10;3.93;;;;;;;23.82;55.24;100859.68;125966;1099;104265;-75
2021/05/26 10:51:57;;;;;;;10.20;3.67;;;;;;;23.78;54.82;100860.62;125929;1099;104187;-76
2021/05/26 10:54:54;;;;;;;5.40;3.67;;;;;;;23.65;54.75;100858.13;125764;1099;104148;-76
2021/05/26 10:57:24;;;;;;;6.17;3.67;;;;;;;23.63;55.19;100849.20;125788;1099;104177;-75
2021/05/26 11:00:21;;;;;;;5.50;3.65;;;;;;;23.58;55.00;100845.70;125918;1099;104178;-78
2021/05/26 11:03:18;;;;;;;10.60;3.90;;;;;;;23.50;54.40;100845.80;125958;1099;104146;-76
2021/05/26 11:06:03;;;;;;;8.60;4.60;;;;;;;23.44;55.02;100845.87;125726;1099;104398;-74
2021/05/26 11:08:43;;;;;;;10.03;3.57;;;;;;;23.45;54.85;100838.71;125760;1099;104309;-73
2021/05/26 11:11:39;;;;;;;5.67;3.40;;;;;;;23.49;54.87;100838.66;125985;1098;111426;-74
2021/05/26 11:14:35;;;;;;;8.43;4.23;;;;;;;23.49;54.54;100841.33;125887;1099;104303;-74
2021/05/26 11:17:34;;;;;;;7.07;3.87;;;;;;;23.54;55.05;100843.95;125885;1099;104130;-75
2021/05/26 11:20:19;;;;;;;5.97;3.70;;;;;;;23.63;54.77;100838.48;125904;1099;104309;-76
2021/05/26 11:22:51;;;;;;;6.03;3.67;;;;;;;23.71;54.59;100845.55;125794;1099;104233;-75
2021/05/26 11:25:20;;;;;;;6.83;3.83;;;;;;;23.84;54.59;100839.13;125893;1099;104152;-75
2021/05/26 11:27:59;;;;;;;7.70;3.60;;;;;;;23.97;54.45;100846.11;125917;1099;104233;-75
2021/05/26 11:30:30;;;;;;;10.37;4.03;;;;;;;24.04;54.52;100847.80;125695;1099;104297;-74
2021/05/26 11:33:12;;;;;;;10.30;4.10;;;;;;;23.97;54.25;100845.23;125823;1099;104347;-74
2021/05/26 11:36:24;;;;;;;6.13;4.10;;;;;;;23.91;54.61;100848.88;126123;1099;104255;-74
2021/05/26 11:39:25;;;;;;;5.87;3.70;;;;;;;23.82;54.27;100841.80;125521;1099;104319;-75
2021/05/26 11:42:07;;;;;;;7.20;3.80;;;;;;;23.76;54.38;100851.72;125743;1099;108118;-74
2021/05/26 11:44:38;;;;;;;8.53;4.23;;;;;;;23.68;54.45;100844.69;125876;1098;104239;-75